Time;durP1;ratioP1;P1;durP2;ratioP2;P2;SDS_P1;SDS_P2;PMS_P1;PMS_P2;Temp;Humidity;BMP_temperature;BMP_pressure;BME280_temperature;BME280_humidity;BME280_pressure;Samples;Min_cycle;Max_cycle;Signal;HPM_P1;HPM_P2
2022/11/06 00:00:45;;;;;;;6.90;5.90;;;;;;;;;;5050308;28;20243;-77
2022/11/06 00:03:12;;;;;;;11.50;5.87;;;;;;;;;;5050518;28;20680;-77
2022/11/06 00:08:28;;;;;;;10.30;4.83;;;;;;;;;;5050075;28;20224;-77
2022/11/06 00:10:54;;;;;;;7.33;5.10;;;;;;;;;;5050211;28;20206;-77
2022/11/06 00:13:21;;;;;;;7.73;4.70;;;;;;;;;;5050633;28;20209;-77
2022/11/06 00:15:48;;;;;;;9.70;4.30;;;;;;;;;;5050020;28;20279;-77
2022/11/06 00:18:15;;;;;;;8.20;4.50;;;;;;;;;;5050104;28;20202;-77
2022/11/06 00:20:43;;;;;;;4.83;4.33;;;;;;;;;;5049921;28;20211;-77
2022/11/06 00:23:10;;;;;;;5.53;5.00;;;;;;;;;;5049749;28;20210;-77
2022/11/06 00:25:40;;;;;;;5.73;5.07;;;;;;;;;;5050134;28;20730;-77
2022/11/06 00:28:07;;;;;;;5.30;4.63;;;;;;;;;;5050340;28;20226;-77
2022/11/06 00:30:33;;;;;;;9.37;4.93;;;;;;;;;;5049500;28;20621;-77
2022/11/06 00:33:00;;;;;;;11.63;5.17;;;;;;;;;;5049965;28;20240;-77
2022/11/06 00:35:27;;;;;;;9.73;4.50;;;;;;;;;;5049301;28;20205;-77
2022/11/06 00:37:56;;;;;;;6.43;4.53;;;;;;;;;;5049853;28;20940;-78
2022/11/06 00:40:22;;;;;;;7.83;4.87;;;;;;;;;;5049839;28;20206;-78
2022/11/06 00:42:54;;;;;;;7.00;5.20;;;;;;;;;;5050050;28;20202;-77
2022/11/06 00:45:20;;;;;;;5.50;4.20;;;;;;;;;;5049511;28;20209;-78
2022/11/06 00:47:47;;;;;;;9.33;5.07;;;;;;;;;;5050250;28;20283;-77
2022/11/06 00:50:14;;;;;;;14.43;6.10;;;;;;;;;;5049544;28;20213;-77
2022/11/06 00:52:41;;;;;;;11.50;5.60;;;;;;;;;;5050192;28;20206;-77
2022/11/06 00:55:09;;;;;;;12.93;5.37;;;;;;;;;;5049284;28;20698;-78
2022/11/06 00:57:36;;;;;;;9.03;6.30;;;;;;;;;;5049876;28;20205;-77
2022/11/06 01:00:04;;;;;;;8.47;4.80;;;;;;;;;;5049678;28;20205;-77
2022/11/06 01:02:30;;;;;;;10.40;6.13;;;;;;;;;;5052343;28;20206;-78
2022/11/06 01:04:57;;;;;;;6.27;5.23;;;;;;;;;;5053433;28;20202;-77
2022/11/06 01:07:24;;;;;;;8.87;5.97;;;;;;;;;;5053431;28;20229;-77
2022/11/06 01:09:51;;;;;;;7.83;5.10;;;;;;;;;;5053294;28;20635;-77
2022/11/06 01:12:19;;;;;;;6.83;5.73;;;;;;;;;;5053275;28;20251;-77
2022/11/06 01:14:45;;;;;;;8.67;6.47;;;;;;;;;;5053126;28;20633;-77
2022/11/06 01:17:13;;;;;;;12.93;9.57;;;;;;;;;;5052947;28;20213;-78
2022/11/06 01:19:40;;;;;;;17.03;10.97;;;;;;;;;;5039102;28;20297;-77
2022/11/06 01:22:06;;;;;;;13.50;8.87;;;;;;;;;;5052978;28;20198;-77
2022/11/06 01:24:33;;;;;;;13.70;10.13;;;;;;;;;;5052767;28;20213;-77
2022/11/06 01:27:00;;;;;;;8.20;7.40;;;;;;;;;;5052979;28;20239;-77
2022/11/06 01:29:28;;;;;;;10.33;6.90;;;;;;;;;;5052613;28;20283;-77
2022/11/06 01:31:55;;;;;;;9.43;6.60;;;;;;;;;;5052677;28;20198;-77
2022/11/06 01:34:22;;;;;;;9.53;5.63;;;;;;;;;;5052514;28;20202;-77
2022/11/06 01:36:49;;;;;;;8.67;6.20;;;;;;;;;;5053029;28;20217;-77
2022/11/06 01:39:15;;;;;;;9.63;6.57;;;;;;;;;;5052958;28;20210;-77
2022/11/06 01:41:44;;;;;;;9.73;6.07;;;;;;;;;;5052566;28;20197;-77
2022/11/06 01:44:47;;;;;;;8.93;6.60;;;;;;;;;;5052426;28;20210;-78
2022/11/06 01:47:23;;;;;;;6.73;6.10;;;;;;;;;;5052535;28;20236;-77
2022/11/06 01:49:52;;;;;;;13.67;6.67;;;;;;;;;;5052591;28;20211;-77
2022/11/06 01:52:19;;;;;;;11.07;6.40;;;;;;;;;;5052287;28;20197;-77
2022/11/06 01:54:49;;;;;;;8.17;6.00;;;;;;;;;;5052376;28;20236;-77
2022/11/06 01:57:16;;;;;;;12.23;6.73;;;;;;;;;;5052889;28;20269;-77
2022/11/06 01:59:45;;;;;;;11.83;6.40;;;;;;;;;;5052551;28;20212;-77
2022/11/06 02:02:15;;;;;;;9.73;5.87;;;;;;;;;;5052453;28;20216;-77
2022/11/06 02:04:44;;;;;;;10.17;6.50;;;;;;;;;;5051904;28;20202;-77
2022/11/06 02:07:11;;;;;;;7.13;5.60;;;;;;;;;;5051817;28;20238;-77
2022/11/06 02:09:39;;;;;;;10.80;6.10;;;;;;;;;;5052215;28;20316;-77
2022/11/06 02:12:14;;;;;;;10.07;6.37;;;;;;;;;;5051816;28;20263;-77
2022/11/06 02:15:01;;;;;;;11.63;6.93;;;;;;;;;;5052074;28;20600;-77
2022/11/06 02:17:45;;;;;;;8.53;6.47;;;;;;;;;;5052031;28;20290;-77
2022/11/06 02:20:20;;;;;;;10.77;6.67;;;;;;;;;;5051631;28;20205;-77
2022/11/06 02:23:27;;;;;;;8.43;6.93;;;;;;;;;;5052067;28;20607;-77
2022/11/06 02:26:05;;;;;;;8.63;6.87;;;;;;;;;;5051782;28;20213;-78
2022/11/06 02:28:35;;;;;;;10.60;6.10;;;;;;;;;;5051338;28;20237;-77
2022/11/06 02:31:04;;;;;;;9.63;6.77;;;;;;;;;;5051713;28;20204;-78
2022/11/06 02:33:35;;;;;;;9.40;6.90;;;;;;;;;;5052031;28;20213;-78
2022/11/06 02:36:04;;;;;;;9.53;7.20;;;;;;;;;;5051531;28;20198;-77
2022/11/06 02:38:36;;;;;;;12.53;7.77;;;;;;;;;;5051263;28;20209;-78
2022/11/06 02:41:05;;;;;;;7.13;6.43;;;;;;;;;;5051392;28;20599;-78
2022/11/06 02:43:38;;;;;;;12.00;6.90;;;;;;;;;;5051735;28;20201;-77
2022/11/06 02:46:07;;;;;;;10.00;6.73;;;;;;;;;;5051480;28;20194;-78
2022/11/06 02:48:38;;;;;;;9.00;7.37;;;;;;;;;;5051023;28;20712;-77
2022/11/06 02:51:05;;;;;;;8.27;6.63;;;;;;;;;;5051047;28;20204;-77
2022/11/06 02:53:33;;;;;;;9.13;7.27;;;;;;;;;;5051011;28;20229;-77
2022/11/06 02:56:03;;;;;;;9.30;6.57;;;;;;;;;;5051378;28;20645;-78
2022/11/06 02:58:35;;;;;;;9.20;7.33;;;;;;;;;;5050933;28;20201;-77
2022/11/06 03:01:04;;;;;;;8.63;7.57;;;;;;;;;;5051186;28;20212;-77
2022/11/06 03:03:33;;;;;;;7.87;6.30;;;;;;;;;;5050898;28;20290;-78
2022/11/06 03:06:02;;;;;;;10.47;7.33;;;;;;;;;;5050828;28;20209;-77
2022/11/06 03:08:33;;;;;;;12.40;6.97;;;;;;;;;;5051183;28;20301;-78
2022/11/06 03:11:06;;;;;;;9.83;6.13;;;;;;;;;;5050723;28;20204;-78
2022/11/06 03:13:44;;;;;;;12.20;7.77;;;;;;;;;;5051072;28;20264;-77
2022/11/06 03:16:22;;;;;;;12.30;6.50;;;;;;;;;;5050604;28;20197;-77
2022/11/06 03:18:55;;;;;;;9.97;6.60;;;;;;;;;;5050968;28;20205;-77
2022/11/06 03:21:25;;;;;;;8.07;6.47;;;;;;;;;;5036717;28;20198;-77
2022/11/06 03:23:55;;;;;;;7.77;7.07;;;;;;;;;;5050447;28;20259;-77
2022/11/06 03:26:24;;;;;;;7.30;6.70;;;;;;;;;;5050182;28;20255;-78
2022/11/06 03:28:55;;;;;;;7.67;6.30;;;;;;;;;;5050805;28;20228;-77
2022/11/06 03:31:28;;;;;;;9.13;6.37;;;;;;;;;;5050314;28;20197;-77
2022/11/06 03:33:58;;;;;;;7.10;6.47;;;;;;;;;;5050830;28;20201;-77
2022/11/06 03:36:27;;;;;;;7.70;6.20;;;;;;;;;;5050605;28;20750;-77
2022/11/06 03:38:56;;;;;;;8.33;6.37;;;;;;;;;;5050321;28;20271;-78
2022/11/06 03:41:27;;;;;;;14.93;9.20;;;;;;;;;;5050209;28;20201;-77
2022/11/06 03:43:56;;;;;;;14.20;10.43;;;;;;;;;;5050820;28;20204;-77
2022/11/06 03:46:24;;;;;;;13.37;10.20;;;;;;;;;;5050391;28;20209;-77
2022/11/06 03:48:54;;;;;;;10.03;8.23;;;;;;;;;;5050326;28;20256;-77
2022/11/06 03:51:23;;;;;;;13.53;8.37;;;;;;;;;;5050246;28;20240;-78
2022/11/06 03:53:52;;;;;;;8.23;7.00;;;;;;;;;;5050840;28;20229;-77
2022/11/06 03:56:25;;;;;;;10.83;8.23;;;;;;;;;;5050277;28;20209;-77
2022/11/06 03:58:53;;;;;;;11.00;7.43;;;;;;;;;;5050450;28;20207;-77
2022/11/06 04:01:24;;;;;;;7.73;6.93;;;;;;;;;;5050413;28;20205;-77
2022/11/06 04:03:55;;;;;;;10.33;6.70;;;;;;;;;;5050093;28;20693;-77
2022/11/06 04:06:25;;;;;;;14.10;6.33;;;;;;;;;;5050130;28;20208;-77
2022/11/06 04:14:26;;;;;;;8.87;7.13;;;;;;;;;;5049881;28;20204;-77
2022/11/06 04:16:57;;;;;;;8.37;6.67;;;;;;;;;;5050396;28;20270;-77
2022/11/06 04:19:24;;;;;;;8.83;6.37;;;;;;;;;;5049313;28;20202;-77
2022/11/06 04:22:01;;;;;;;8.87;7.63;;;;;;;;;;5050200;28;20216;-77
2022/11/06 04:27:26;;;;;;;12.23;7.67;;;;;;;;;;5050112;28;20288;-77
2022/11/06 04:30:11;;;;;;;8.03;7.00;;;;;;;;;;5036195;28;20254;-77
2022/11/06 04:32:54;;;;;;;11.77;7.07;;;;;;;;;;5048301;28;20220;-76
2022/11/06 04:35:25;;;;;;;8.63;6.90;;;;;;;;;;5046591;28;20198;-77
2022/11/06 04:37:56;;;;;;;10.37;6.93;;;;;;;;;;5052646;28;20220;-77
2022/11/06 04:40:26;;;;;;;8.60;7.40;;;;;;;;;;5053223;28;20208;-77
2022/11/06 04:42:56;;;;;;;10.00;7.60;;;;;;;;;;5053026;28;20228;-77
2022/11/06 04:45:24;;;;;;;10.73;7.73;;;;;;;;;;5053374;28;20205;-78
2022/11/06 04:47:53;;;;;;;13.00;7.47;;;;;;;;;;5053404;28;20240;-78
2022/11/06 04:50:22;;;;;;;14.43;7.60;;;;;;;;;;5053011;28;20237;-78
2022/11/06 04:52:50;;;;;;;10.23;7.40;;;;;;;;;;5053309;28;20244;-77
2022/11/06 04:55:17;;;;;;;9.57;6.80;;;;;;;;;;5053440;28;20629;-77
2022/11/06 04:57:44;;;;;;;9.60;6.97;;;;;;;;;;5053535;28;20217;-78
2022/11/06 05:00:13;;;;;;;14.40;7.03;;;;;;;;;;5053084;28;20202;-78
2022/11/06 05:02:39;;;;;;;9.30;7.17;;;;;;;;;;5039947;28;20654;-78
2022/11/06 05:05:08;;;;;;;9.27;6.90;;;;;;;;;;5053366;28;20206;-78
2022/11/06 05:07:35;;;;;;;12.03;7.70;;;;;;;;;;5053439;28;20283;-78
2022/11/06 05:10:01;;;;;;;11.83;6.63;;;;;;;;;;5052904;28;20213;-77
2022/11/06 05:12:28;;;;;;;14.47;7.10;;;;;;;;;;5052591;28;20206;-77
2022/11/06 05:14:55;;;;;;;10.17;8.57;;;;;;;;;;5052775;28;20209;-78
2022/11/06 05:17:21;;;;;;;15.47;8.40;;;;;;;;;;5053500;28;20208;-78
2022/11/06 05:19:48;;;;;;;15.73;11.17;;;;;;;;;;5052914;28;20623;-77
2022/11/06 05:25:00;;;;;;;15.27;12.47;;;;;;;;;;5041264;28;20259;-78
2022/11/06 05:27:27;;;;;;;13.20;10.63;;;;;;;;;;5052428;28;20209;-78
2022/11/06 05:29:54;;;;;;;13.27;11.03;;;;;;;;;;5052875;28;20211;-78
2022/11/06 05:32:21;;;;;;;9.83;8.27;;;;;;;;;;5053285;28;20209;-78
2022/11/06 05:34:48;;;;;;;9.40;7.13;;;;;;;;;;5052797;28;20252;-77
2022/11/06 05:37:16;;;;;;;10.83;7.47;;;;;;;;;;5052389;28;20211;-77
2022/11/06 05:39:42;;;;;;;10.33;8.30;;;;;;;;;;5052502;28;20209;-78
2022/11/06 05:42:09;;;;;;;9.30;8.07;;;;;;;;;;5051339;28;20272;-78
2022/11/06 05:44:36;;;;;;;12.13;9.10;;;;;;;;;;5044521;28;20213;-78
2022/11/06 05:47:03;;;;;;;13.37;9.80;;;;;;;;;;5051714;28;20201;-78
2022/11/06 05:49:30;;;;;;;21.30;10.80;;;;;;;;;;5052051;28;20229;-78
2022/11/06 05:51:57;;;;;;;11.93;9.30;;;;;;;;;;5052037;28;20729;-78
2022/11/06 05:54:25;;;;;;;14.70;10.90;;;;;;;;;;5051442;28;20241;-78
2022/11/06 05:56:51;;;;;;;13.20;11.23;;;;;;;;;;5052001;28;20209;-78
2022/11/06 05:59:18;;;;;;;21.33;13.30;;;;;;;;;;5052671;28;20216;-78
2022/11/06 06:01:45;;;;;;;13.87;11.83;;;;;;;;;;5052374;28;20198;-78
2022/11/06 06:04:12;;;;;;;17.07;11.37;;;;;;;;;;5052130;28;20639;-78
2022/11/06 06:06:39;;;;;;;17.27;10.27;;;;;;;;;;5052186;28;20198;-78
2022/11/06 06:09:05;;;;;;;13.60;9.53;;;;;;;;;;5052016;28;20229;-78
2022/11/06 06:11:33;;;;;;;11.00;9.13;;;;;;;;;;5052471;28;20198;-77
2022/11/06 06:14:00;;;;;;;11.80;10.13;;;;;;;;;;5052113;28;20198;-77
2022/11/06 06:16:27;;;;;;;14.10;9.57;;;;;;;;;;5051746;28;20206;-77
2022/11/06 06:18:54;;;;;;;13.57;8.73;;;;;;;;;;5052343;28;20197;-80
2022/11/06 06:21:21;;;;;;;12.67;8.53;;;;;;;;;;5051391;28;20609;-77
2022/11/06 06:23:48;;;;;;;11.57;9.53;;;;;;;;;;5049790;28;20278;-78
2022/11/06 06:26:14;;;;;;;10.17;9.17;;;;;;;;;;5050904;28;20653;-77
2022/11/06 06:28:42;;;;;;;12.83;8.90;;;;;;;;;;5051384;28;20222;-78
2022/11/06 06:31:10;;;;;;;10.80;8.33;;;;;;;;;;5051157;28;20199;-78
2022/11/06 06:33:37;;;;;;;12.33;8.77;;;;;;;;;;5051339;28;20194;-78
2022/11/06 06:36:05;;;;;;;13.97;10.07;;;;;;;;;;5051511;28;20209;-78
2022/11/06 06:38:32;;;;;;;12.07;9.33;;;;;;;;;;5051508;28;20209;-78
2022/11/06 06:41:01;;;;;;;9.63;7.63;;;;;;;;;;5048898;28;20924;-77
2022/11/06 06:43:28;;;;;;;13.53;8.00;;;;;;;;;;5050308;28;20209;-77
2022/11/06 06:45:59;;;;;;;8.87;6.73;;;;;;;;;;5050607;28;20557;-77
2022/11/06 06:48:26;;;;;;;15.73;8.27;;;;;;;;;;5049851;28;20771;-78
2022/11/06 06:50:55;;;;;;;12.20;10.93;;;;;;;;;;5050158;28;20209;-77
2022/11/06 06:53:22;;;;;;;15.43;11.53;;;;;;;;;;5050429;28;20229;-77
2022/11/06 06:55:48;;;;;;;18.43;10.90;;;;;;;;;;5050044;28;20201;-77
2022/11/06 06:58:15;;;;;;;16.07;10.37;;;;;;;;;;5050695;28;20596;-78
2022/11/06 07:00:42;;;;;;;15.77;11.10;;;;;;;;;;5050777;28;20221;-78
2022/11/06 07:03:10;;;;;;;15.63;11.83;;;;;;;;;;5051418;28;20202;-78
2022/11/06 07:05:37;;;;;;;28.03;17.27;;;;;;;;;;5051106;28;20212;-78
2022/11/06 07:08:04;;;;;;;54.53;28.63;;;;;;;;;;5051315;28;20287;-77
2022/11/06 07:10:32;;;;;;;96.80;46.83;;;;;;;;;;5051037;28;20197;-77
2022/11/06 07:13:01;;;;;;;185.97;88.80;;;;;;;;;;5051308;28;20650;-77
2022/11/06 07:15:27;;;;;;;93.10;49.33;;;;;;;;;;5050707;28;20210;-76
2022/11/06 07:17:54;;;;;;;17.57;13.30;;;;;;;;;;5050576;28;20589;-77
2022/11/06 07:20:23;;;;;;;15.63;9.83;;;;;;;;;;5050735;28;20206;-77
2022/11/06 07:22:50;;;;;;;17.77;11.13;;;;;;;;;;5050631;28;20202;-77
2022/11/06 07:25:17;;;;;;;12.40;9.97;;;;;;;;;;5050094;28;20563;-77
2022/11/06 07:27:43;;;;;;;8.53;7.63;;;;;;;;;;5048698;28;20676;-77
2022/11/06 07:30:11;;;;;;;21.67;9.07;;;;;;;;;;5050551;28;20206;-79
2022/11/06 07:32:38;;;;;;;19.53;11.40;;;;;;;;;;5049667;28;20210;-78
2022/11/06 07:35:06;;;;;;;12.83;10.17;;;;;;;;;;5050276;28;20217;-77
2022/11/06 07:37:35;;;;;;;21.87;11.73;;;;;;;;;;5050529;28;20213;-77
2022/11/06 07:40:03;;;;;;;14.37;9.77;;;;;;;;;;5050108;28;20202;-77
2022/11/06 07:42:29;;;;;;;12.90;9.37;;;;;;;;;;5048993;28;20694;-77
2022/11/06 07:44:57;;;;;;;9.93;6.50;;;;;;;;;;5047647;28;20202;-78
2022/11/06 07:47:23;;;;;;;7.90;6.87;;;;;;;;;;5047921;28;20269;-77
2022/11/06 07:49:50;;;;;;;11.03;6.10;;;;;;;;;;5050144;28;20232;-77
2022/11/06 07:52:17;;;;;;;8.20;7.20;;;;;;;;;;5050112;28;20200;-78
2022/11/06 07:54:45;;;;;;;10.20;5.63;;;;;;;;;;5048497;28;20245;-78
2022/11/06 07:57:12;;;;;;;11.57;7.10;;;;;;;;;;5048415;28;20202;-78
2022/11/06 07:59:38;;;;;;;8.60;6.40;;;;;;;;;;5048728;28;20326;-77
2022/11/06 08:02:05;;;;;;;9.87;5.83;;;;;;;;;;5049133;28;20202;-77
2022/11/06 08:04:32;;;;;;;9.67;6.43;;;;;;;;;;5049026;28;20203;-77
2022/11/06 08:06:59;;;;;;;10.73;7.53;;;;;;;;;;5048650;28;20210;-78
2022/11/06 08:09:26;;;;;;;17.63;12.37;;;;;;;;;;5049773;28;20226;-77
2022/11/06 08:11:54;;;;;;;10.97;8.57;;;;;;;;;;5052595;28;20636;-77
2022/11/06 08:14:21;;;;;;;8.90;5.97;;;;;;;;;;5051669;28;20262;-77
2022/11/06 08:16:47;;;;;;;7.10;6.03;;;;;;;;;;5054278;28;20240;-77
2022/11/06 08:19:14;;;;;;;10.17;5.90;;;;;;;;;;5051816;28;20283;-77
2022/11/06 08:21:41;;;;;;;12.03;6.20;;;;;;;;;;5042626;28;20202;-77
2022/11/06 08:24:08;;;;;;;15.17;9.70;;;;;;;;;;5053847;28;20216;-78
2022/11/06 08:26:35;;;;;;;14.80;8.67;;;;;;;;;;5053607;28;20210;-78
2022/11/06 08:29:03;;;;;;;17.60;9.37;;;;;;;;;;5053862;28;20245;-77
2022/11/06 08:31:30;;;;;;;9.53;7.70;;;;;;;;;;5053201;28;20198;-78
2022/11/06 08:33:56;;;;;;;21.50;13.43;;;;;;;;;;5051972;28;20213;-77
2022/11/06 08:36:23;;;;;;;9.10;7.80;;;;;;;;;;5051529;28;20208;-78
2022/11/06 08:38:50;;;;;;;9.70;7.40;;;;;;;;;;5052427;28;20316;-78
2022/11/06 08:41:17;;;;;;;14.57;5.80;;;;;;;;;;5051045;28;20208;-78
2022/11/06 08:43:43;;;;;;;10.43;6.57;;;;;;;;;;5051582;28;20204;-78
2022/11/06 08:46:12;;;;;;;6.10;5.30;;;;;;;;;;5052798;28;20206;-77
2022/11/06 08:48:38;;;;;;;13.03;10.13;;;;;;;;;;5053683;28;20232;-77
2022/11/06 08:51:06;;;;;;;9.67;7.33;;;;;;;;;;5053298;28;20211;-77
2022/11/06 08:53:32;;;;;;;11.30;7.63;;;;;;;;;;5016693;28;20241;-77
2022/11/06 08:55:59;;;;;;;8.57;5.97;;;;;;;;;;5052363;28;20210;-77
2022/11/06 08:58:26;;;;;;;9.00;7.23;;;;;;;;;;5052131;28;20209;-78
2022/11/06 09:00:53;;;;;;;7.37;6.67;;;;;;;;;;5052855;28;20209;-77
2022/11/06 09:03:21;;;;;;;13.23;6.87;;;;;;;;;;5053763;28;20213;-78
2022/11/06 09:05:48;;;;;;;8.80;7.90;;;;;;;;;;5053138;28;20197;-77
2022/11/06 09:08:15;;;;;;;9.30;7.80;;;;;;;;;;5052903;28;20208;-78
2022/11/06 09:10:43;;;;;;;8.87;6.70;;;;;;;;;;5052975;28;20240;-79
2022/11/06 09:13:10;;;;;;;10.00;7.07;;;;;;;;;;5047549;28;20205;-77
2022/11/06 09:15:37;;;;;;;7.73;6.33;;;;;;;;;;5052994;28;20690;-77
2022/11/06 09:18:04;;;;;;;7.87;7.07;;;;;;;;;;5053024;28;20198;-77
2022/11/06 09:20:32;;;;;;;8.50;6.87;;;;;;;;;;5053210;28;20213;-77
2022/11/06 09:23:02;;;;;;;7.43;6.73;;;;;;;;;;5052028;28;20285;-78
2022/11/06 09:25:29;;;;;;;7.80;5.33;;;;;;;;;;5052712;28;20234;-78
2022/11/06 09:27:56;;;;;;;6.57;5.93;;;;;;;;;;5052836;28;20288;-78
2022/11/06 09:30:24;;;;;;;7.80;6.90;;;;;;;;;;5052632;28;20225;-78
2022/11/06 09:32:53;;;;;;;6.83;6.23;;;;;;;;;;5052639;28;20198;-78
2022/11/06 09:35:23;;;;;;;6.80;5.23;;;;;;;;;;5051988;28;20202;-78
2022/11/06 09:37:52;;;;;;;7.03;6.33;;;;;;;;;;5051844;28;20202;-77
2022/11/06 09:40:22;;;;;;;5.90;5.03;;;;;;;;;;5051928;28;20221;-77
2022/11/06 09:42:56;;;;;;;8.63;6.63;;;;;;;;;;5052482;28;20212;-77
2022/11/06 09:45:25;;;;;;;9.70;5.03;;;;;;;;;;5051069;28;20949;-77
2022/11/06 09:47:55;;;;;;;8.17;6.40;;;;;;;;;;5052174;28;20205;-78
2022/11/06 09:50:26;;;;;;;10.63;6.93;;;;;;;;;;5047676;28;20245;-78
2022/11/06 09:52:56;;;;;;;10.07;8.37;;;;;;;;;;5050660;28;20205;-77
2022/11/06 09:55:26;;;;;;;7.03;5.77;;;;;;;;;;5051737;28;20201;-77
2022/11/06 09:57:56;;;;;;;5.90;5.10;;;;;;;;;;5050902;28;20209;-77
2022/11/06 10:00:23;;;;;;;6.57;6.00;;;;;;;;;;5041628;28;20205;-78
2022/11/06 10:02:51;;;;;;;8.53;7.03;;;;;;;;;;5048582;28;20208;-78
2022/11/06 10:05:24;;;;;;;10.40;6.10;;;;;;;;;;5051572;28;20201;-77
2022/11/06 10:07:54;;;;;;;6.63;6.13;;;;;;;;;;5051502;28;20303;-77
2022/11/06 10:10:23;;;;;;;9.53;5.67;;;;;;;;;;5051863;28;20236;-77
2022/11/06 10:13:00;;;;;;;8.77;5.27;;;;;;;;;;5052146;28;20209;-79
2022/11/06 10:15:29;;;;;;;7.30;5.67;;;;;;;;;;5051912;28;20213;-77
2022/11/06 10:18:02;;;;;;;8.63;5.17;;;;;;;;;;5051916;28;20687;-77
2022/11/06 10:20:31;;;;;;;13.63;7.30;;;;;;;;;;5052121;28;20255;-77
2022/11/06 10:23:05;;;;;;;11.07;7.73;;;;;;;;;;5052048;28;20288;-75
2022/11/06 10:25:46;;;;;;;8.00;6.30;;;;;;;;;;5051332;28;20225;-75
2022/11/06 10:28:27;;;;;;;25.00;11.00;;;;;;;;;;5051692;28;20212;-77
2022/11/06 10:31:03;;;;;;;24.93;12.83;;;;;;;;;;5051291;28;20738;-79
2022/11/06 10:33:38;;;;;;;7.37;5.63;;;;;;;;;;5051027;28;20267;-79
2022/11/06 10:36:07;;;;;;;20.77;12.70;;;;;;;;;;5051001;28;20209;-79
2022/11/06 10:38:38;;;;;;;8.67;6.87;;;;;;;;;;5051763;28;20205;-79
2022/11/06 10:41:05;;;;;;;20.27;13.03;;;;;;;;;;5051221;28;20205;-79
2022/11/06 10:43:34;;;;;;;6.47;5.87;;;;;;;;;;5052018;28;20206;-78
2022/11/06 10:46:06;;;;;;;9.33;5.40;;;;;;;;;;5050546;28;20190;-79
2022/11/06 10:48:37;;;;;;;11.07;5.83;;;;;;;;;;5050727;28;20289;-80
2022/11/06 10:51:23;;;;;;;7.43;5.40;;;;;;;;;;5049499;28;20229;-79
2022/11/06 10:53:59;;;;;;;9.57;5.00;;;;;;;;;;5050613;28;20213;-79
2022/11/06 10:56:36;;;;;;;5.57;5.17;;;;;;;;;;5050881;28;20763;-79
2022/11/06 10:59:02;;;;;;;8.63;6.87;;;;;;;;;;5051094;28;20205;-79
2022/11/06 11:01:29;;;;;;;7.67;5.13;;;;;;;;;;5051096;28;20659;-80
2022/11/06 11:03:56;;;;;;;7.00;4.70;;;;;;;;;;5048716;28;20210;-79
2022/11/06 11:06:23;;;;;;;7.60;4.73;;;;;;;;;;5030366;28;20725;-79
2022/11/06 11:08:51;;;;;;;7.50;6.07;;;;;;;;;;5048138;28;20213;-80
2022/11/06 11:11:23;;;;;;;6.80;5.70;;;;;;;;;;5050842;28;20277;-79
2022/11/06 11:14:12;;;;;;;7.60;6.93;;;;;;;;;;5050510;28;20201;-79
2022/11/06 11:16:40;;;;;;;7.47;5.20;;;;;;;;;;5050584;28;20234;-79
2022/11/06 11:19:22;;;;;;;9.13;4.60;;;;;;;;;;5050646;28;20209;-79
2022/11/06 11:21:54;;;;;;;6.87;4.83;;;;;;;;;;5051042;28;20213;-79
2022/11/06 11:24:21;;;;;;;7.33;6.63;;;;;;;;;;5050352;28;20238;-79
2022/11/06 11:26:50;;;;;;;5.27;4.80;;;;;;;;;;5051257;28;21199;-79
2022/11/06 11:29:22;;;;;;;5.60;5.00;;;;;;;;;;5050750;28;20287;-79
2022/11/06 11:31:52;;;;;;;9.90;7.73;;;;;;;;;;5051232;28;20205;-79
2022/11/06 11:34:21;;;;;;;6.23;5.63;;;;;;;;;;5050153;28;20213;-79
2022/11/06 11:36:54;;;;;;;8.30;7.50;;;;;;;;;;5050947;28;20205;-79
2022/11/06 11:39:24;;;;;;;7.00;6.30;;;;;;;;;;5050555;28;20640;-79
2022/11/06 11:41:53;;;;;;;10.40;6.23;;;;;;;;;;5050882;28;20692;-79
2022/11/06 11:44:20;;;;;;;5.97;4.63;;;;;;;;;;5050416;28;20201;-79
2022/11/06 11:46:48;;;;;;;4.83;4.30;;;;;;;;;;5050302;28;20202;-79
2022/11/06 11:49:29;;;;;;;5.37;4.83;;;;;;;;;;5050486;28;20202;-79
2022/11/06 11:51:57;;;;;;;8.13;6.13;;;;;;;;;;5050679;28;20208;-79
2022/11/06 11:54:26;;;;;;;6.07;5.47;;;;;;;;;;5050038;28;20620;-79
2022/11/06 11:56:56;;;;;;;8.03;5.07;;;;;;;;;;5050402;28;20213;-79
2022/11/06 11:59:26;;;;;;;7.00;5.50;;;;;;;;;;5050068;28;20287;-79
2022/11/06 12:01:53;;;;;;;7.60;5.53;;;;;;;;;;5050570;28;20208;-79
2022/11/06 12:04:25;;;;;;;6.47;4.87;;;;;;;;;;5050378;28;20194;-79
2022/11/06 12:06:55;;;;;;;7.50;5.73;;;;;;;;;;5050802;28;20271;-79
2022/11/06 12:09:22;;;;;;;7.47;5.43;;;;;;;;;;5050027;28;20260;-79
2022/11/06 12:11:49;;;;;;;6.80;5.80;;;;;;;;;;5049898;28;20220;-79
2022/11/06 12:14:23;;;;;;;9.10;6.13;;;;;;;;;;5050348;28;20197;-79
2022/11/06 12:16:52;;;;;;;7.20;5.20;;;;;;;;;;5050428;28;20213;-79
2022/11/06 12:19:20;;;;;;;8.57;5.63;;;;;;;;;;5050057;28;20231;-79
2022/11/06 12:21:51;;;;;;;9.67;6.80;;;;;;;;;;5050466;28;20201;-79
2022/11/06 12:24:20;;;;;;;8.57;7.07;;;;;;;;;;5049978;28;20201;-79
2022/11/06 12:26:52;;;;;;;10.13;5.90;;;;;;;;;;5050205;28;20688;-79
2022/11/06 12:29:23;;;;;;;6.37;5.27;;;;;;;;;;5049994;28;20202;-79
2022/11/06 12:31:55;;;;;;;5.30;4.80;;;;;;;;;;5050552;28;20280;-79
2022/11/06 12:34:28;;;;;;;6.97;5.30;;;;;;;;;;5049911;28;20213;-80
2022/11/06 12:37:08;;;;;;;9.57;5.80;;;;;;;;;;5047203;28;20698;-80
2022/11/06 12:39:38;;;;;;;6.57;5.93;;;;;;;;;;5043231;28;20214;-79
2022/11/06 12:42:07;;;;;;;9.47;5.70;;;;;;;;;;5049505;28;20635;-75
2022/11/06 12:44:35;;;;;;;6.77;5.30;;;;;;;;;;5049713;28;20198;-76
2022/11/06 12:47:08;;;;;;;6.73;6.03;;;;;;;;;;5049610;28;20256;-76
2022/11/06 12:50:10;;;;;;;7.17;5.20;;;;;;;;;;5049672;28;20708;-75
2022/11/06 12:52:51;;;;;;;7.07;6.23;;;;;;;;;;5037511;28;20193;-76
2022/11/06 12:55:22;;;;;;;9.10;6.53;;;;;;;;;;5049609;28;20708;-76
2022/11/06 12:58:04;;;;;;;8.10;6.40;;;;;;;;;;5052494;28;20210;-75
2022/11/06 13:00:36;;;;;;;9.27;6.37;;;;;;;;;;5053065;28;20240;-76
2022/11/06 13:03:30;;;;;;;6.93;6.17;;;;;;;;;;5053033;28;20733;-75
2022/11/06 13:06:02;;;;;;;9.67;7.87;;;;;;;;;;5052826;28;20202;-76
2022/11/06 13:08:35;;;;;;;9.90;7.13;;;;;;;;;;5053323;28;20688;-76
2022/11/06 13:11:14;;;;;;;10.07;6.87;;;;;;;;;;5051413;28;20230;-76
2022/11/06 13:13:50;;;;;;;8.57;7.20;;;;;;;;;;5052583;28;20205;-75
2022/11/06 13:16:28;;;;;;;8.83;7.40;;;;;;;;;;5052352;28;20584;-77
2022/11/06 13:19:00;;;;;;;10.27;7.37;;;;;;;;;;5053504;28;20209;-75
2022/11/06 13:21:31;;;;;;;11.23;8.13;;;;;;;;;;5051796;28;20198;-76
2022/11/06 13:24:01;;;;;;;10.57;8.70;;;;;;;;;;5051626;28;20205;-76
2022/11/06 13:26:32;;;;;;;11.33;7.13;;;;;;;;;;5048304;28;20632;-76
2022/11/06 13:29:02;;;;;;;7.93;6.87;;;;;;;;;;5052449;28;20685;-76
2022/11/06 13:31:35;;;;;;;9.80;6.90;;;;;;;;;;5051382;28;20229;-77
2022/11/06 13:34:02;;;;;;;8.50;5.90;;;;;;;;;;5053305;28;20289;-77
2022/11/06 13:36:30;;;;;;;13.37;6.67;;;;;;;;;;5052739;28;20251;-77
2022/11/06 13:39:00;;;;;;;11.43;6.43;;;;;;;;;;5052810;28;20198;-77
2022/11/06 13:41:29;;;;;;;6.00;5.30;;;;;;;;;;5052240;28;20214;-77
2022/11/06 13:43:59;;;;;;;6.60;6.00;;;;;;;;;;5051351;28;20201;-77
2022/11/06 13:46:34;;;;;;;21.87;8.70;;;;;;;;;;5052933;28;20205;-77
2022/11/06 13:49:07;;;;;;;17.77;8.23;;;;;;;;;;5052786;28;20205;-77
2022/11/06 13:51:41;;;;;;;11.50;8.20;;;;;;;;;;5050754;28;20226;-77
2022/11/06 13:54:15;;;;;;;10.93;6.37;;;;;;;;;;5040318;28;20317;-77
2022/11/06 13:57:08;;;;;;;11.33;7.63;;;;;;;;;;5050687;28;20201;-77
2022/11/06 13:59:51;;;;;;;14.57;7.30;;;;;;;;;;5040269;28;20565;-76
2022/11/06 14:02:35;;;;;;;9.53;6.63;;;;;;;;;;5052030;28;20198;-77
2022/11/06 14:05:27;;;;;;;16.27;6.20;;;;;;;;;;5050298;28;20209;-77
2022/11/06 14:07:54;;;;;;;9.33;7.07;;;;;;;;;;5050341;28;20205;-77
2022/11/06 14:10:25;;;;;;;10.53;8.20;;;;;;;;;;5051607;28;20622;-77
2022/11/06 14:12:53;;;;;;;7.93;6.50;;;;;;;;;;5051407;28;20206;-76
2022/11/06 14:15:26;;;;;;;7.67;6.73;;;;;;;;;;5052465;28;20208;-76
2022/11/06 14:17:58;;;;;;;7.57;5.83;;;;;;;;;;5052273;28;20206;-76
2022/11/06 14:20:31;;;;;;;11.33;10.13;;;;;;;;;;5051702;28;20723;-76
2022/11/06 14:23:31;;;;;;;9.00;7.93;;;;;;;;;;5038686;28;20237;-77
2022/11/06 14:25:59;;;;;;;15.27;10.33;;;;;;;;;;5051580;28;20197;-76
2022/11/06 14:28:30;;;;;;;18.67;8.53;;;;;;;;;;5051332;28;20210;-77
2022/11/06 14:30:57;;;;;;;14.73;9.87;;;;;;;;;;5051445;28;20754;-76
2022/11/06 14:34:16;;;;;;;15.03;9.40;;;;;;;;;;5051370;28;20201;-77
2022/11/06 14:36:42;;;;;;;9.00;7.33;;;;;;;;;;5051334;28;20202;-77
2022/11/06 14:39:10;;;;;;;12.53;7.40;;;;;;;;;;5051753;28;20202;-76
2022/11/06 14:41:55;;;;;;;8.27;6.97;;;;;;;;;;5050514;28;20209;-76
2022/11/06 14:44:34;;;;;;;16.63;8.83;;;;;;;;;;5051517;28;20256;-76
2022/11/06 14:47:08;;;;;;;8.17;7.37;;;;;;;;;;5051222;28;20213;-76
2022/11/06 14:49:40;;;;;;;10.93;8.40;;;;;;;;;;5050458;28;20202;-76
2022/11/06 14:52:09;;;;;;;12.50;9.37;;;;;;;;;;5050008;28;20237;-76
2022/11/06 14:54:39;;;;;;;13.60;8.03;;;;;;;;;;5051435;28;20237;-76
2022/11/06 14:57:06;;;;;;;20.93;12.77;;;;;;;;;;5051533;28;20208;-76
2022/11/06 14:59:35;;;;;;;14.77;10.27;;;;;;;;;;5050811;28;20205;-76
2022/11/06 15:02:05;;;;;;;24.17;14.60;;;;;;;;;;5051240;28;20206;-77
2022/11/06 15:04:34;;;;;;;26.00;17.17;;;;;;;;;;5050945;28;20230;-76
2022/11/06 15:07:09;;;;;;;17.97;13.03;;;;;;;;;;5050754;28;20212;-76